ENT106T LGSM-EPKK
Flight info
| Callsign | ENT106T |
|---|---|
| Flight time | 2h 1m |
| Altitude | 34000 |
| Route | URNIL UL609 MES UG18 GIKAS UN133 ATFIR N133 LOMOS DCT OLMIP DCT NARKA DCT KSC DCT LENOV |
| Aircraft | B738/M-SDE2E3FGHIRWXY/LB1 |
Departure
| Time | 2026-05-08 15:23 |
|---|---|
| Airport | Samos Airport (LGSM) |
Arrival
| Time | 2026-05-08 17:25 |
|---|---|
| Airport | Kraków John Paul II International Airport (EPKK) |
| Time | Latitude | Longitude | Altitude | Speed | Heading |
|---|---|---|---|---|---|
| 2026-05-08 15:07 | 37.69065 | 26.91159 | 28 ft | 0 kts | 4° |
| 2026-05-08 15:16 | 37.69060 | 26.91159 | 27 ft | 2 kts | 5° |
| 2026-05-08 15:17 | 37.69047 | 26.91157 | 27 ft | 0 kts | 4° |
| 2026-05-08 15:17 | 37.69035 | 26.91158 | 27 ft | 2 kts | 340° |
| 2026-05-08 15:17 | 37.69022 | 26.91168 | 27 ft | 2 kts | 312° |
| 2026-05-08 15:17 | 37.69015 | 26.91184 | 27 ft | 2 kts | 283° |
| 2026-05-08 15:18 | 37.69014 | 26.91192 | 27 ft | 1 kts | 269° |
| 2026-05-08 15:18 | 37.69014 | 26.91198 | 27 ft | 0 kts | 274° |
| 2026-05-08 15:19 | 37.69014 | 26.91197 | 27 ft | 0 kts | 274° |
| 2026-05-08 15:19 | 37.69015 | 26.91183 | 27 ft | 2 kts | 274° |
| 2026-05-08 15:20 | 37.69016 | 26.91154 | 27 ft | 4 kts | 274° |
| 2026-05-08 15:20 | 37.69013 | 26.91105 | 27 ft | 7 kts | 253° |
| 2026-05-08 15:20 | 37.68973 | 26.91048 | 27 ft | 11 kts | 219° |
| 2026-05-08 15:20 | 37.68932 | 26.90953 | 27 ft | 15 kts | 271° |
| 2026-05-08 15:21 | 37.68940 | 26.90779 | 27 ft | 24 kts | 274° |
| 2026-05-08 15:21 | 37.68955 | 26.90520 | 27 ft | 34 kts | 274° |
| 2026-05-08 15:21 | 37.68976 | 26.90250 | 27 ft | 22 kts | 283° |
| 2026-05-08 15:21 | 37.69000 | 26.90153 | 27 ft | 6 kts | 285° |
| 2026-05-08 15:22 | 37.68986 | 26.90131 | 27 ft | 4 kts | 140° |
| 2026-05-08 15:22 | 37.68978 | 26.90162 | 27 ft | 0 kts | 94° |
| 2026-05-08 15:22 | 37.68973 | 26.90232 | 27 ft | 36 kts | 95° |
| 2026-05-08 15:23 | 37.68935 | 26.90881 | 27 ft | 110 kts | 94° |
| 2026-05-08 15:23 | 37.68860 | 26.92124 | 40 ft | 168 kts | 94° |
| 2026-05-08 15:23 | 37.68756 | 26.93623 | 533 ft | 179 kts | 96° |
| 2026-05-08 15:23 | 37.68344 | 26.95212 | 922 ft | 201 kts | 122° |
| 2026-05-08 15:24 | 37.67309 | 26.96440 | 1188 ft | 215 kts | 155° |
| 2026-05-08 15:24 | 37.65832 | 26.96812 | 1529 ft | 229 kts | 184° |
| 2026-05-08 15:24 | 37.64225 | 26.96271 | 1763 ft | 251 kts | 208° |
| 2026-05-08 15:24 | 37.62990 | 26.94810 | 2603 ft | 242 kts | 241° |
| 2026-05-08 15:25 | 37.62402 | 26.92929 | 3512 ft | 233 kts | 253° |
| 2026-05-08 15:25 | 37.62029 | 26.90858 | 3741 ft | 254 kts | 271° |
| 2026-05-08 15:25 | 37.62444 | 26.88658 | 4198 ft | 262 kts | 292° |
| 2026-05-08 15:25 | 37.63024 | 26.86481 | 4855 ft | 265 kts | 285° |
| 2026-05-08 15:26 | 37.63429 | 26.84211 | 5520 ft | 267 kts | 283° |
| 2026-05-08 15:26 | 37.63818 | 26.81940 | 6177 ft | 269 kts | 283° |
| 2026-05-08 15:26 | 37.64204 | 26.79626 | 6868 ft | 271 kts | 282° |
| 2026-05-08 15:26 | 37.64585 | 26.77292 | 7548 ft | 272 kts | 282° |
| 2026-05-08 15:27 | 37.64962 | 26.74969 | 8221 ft | 274 kts | 282° |
| 2026-05-08 15:27 | 37.65342 | 26.72617 | 8896 ft | 276 kts | 282° |
| 2026-05-08 15:27 | 37.65720 | 26.70265 | 9564 ft | 278 kts | 282° |
| 2026-05-08 15:27 | 37.66102 | 26.67885 | 10227 ft | 280 kts | 282° |
| 2026-05-08 15:28 | 37.66497 | 26.65418 | 10477 ft | 298 kts | 282° |
| 2026-05-08 15:28 | 37.66927 | 26.62733 | 10608 ft | 319 kts | 281° |
| 2026-05-08 15:28 | 37.67377 | 26.59910 | 10717 ft | 340 kts | 281° |
| 2026-05-08 15:28 | 37.67857 | 26.56924 | 10925 ft | 355 kts | 283° |
| 2026-05-08 15:29 | 37.68651 | 26.53952 | 11377 ft | 364 kts | 296° |
| 2026-05-08 15:29 | 37.70069 | 26.51292 | 11922 ft | 370 kts | 312° |
| 2026-05-08 15:29 | 37.71968 | 26.49100 | 12577 ft | 372 kts | 319° |
| 2026-05-08 15:29 | 37.73965 | 26.46962 | 13058 ft | 378 kts | 318° |
| 2026-05-08 15:30 | 37.75929 | 26.44810 | 13731 ft | 379 kts | 317° |
| 2026-05-08 15:30 | 37.77945 | 26.42602 | 14223 ft | 384 kts | 318° |
| 2026-05-08 15:30 | 37.79964 | 26.40400 | 14848 ft | 386 kts | 318° |
| 2026-05-08 15:30 | 37.82001 | 26.38178 | 15399 ft | 389 kts | 318° |
| 2026-05-08 15:31 | 37.84031 | 26.35961 | 15928 ft | 392 kts | 318° |
| 2026-05-08 15:31 | 37.86104 | 26.33696 | 16465 ft | 395 kts | 317° |
| 2026-05-08 15:31 | 37.88192 | 26.31412 | 16971 ft | 398 kts | 317° |
| 2026-05-08 15:31 | 37.90290 | 26.29109 | 17478 ft | 401 kts | 317° |
| 2026-05-08 15:32 | 37.92389 | 26.26804 | 17960 ft | 404 kts | 317° |
| 2026-05-08 15:32 | 37.94506 | 26.24479 | 18470 ft | 406 kts | 317° |
| 2026-05-08 15:32 | 37.96655 | 26.22116 | 18909 ft | 409 kts | 317° |
| 2026-05-08 15:32 | 37.98786 | 26.19771 | 19355 ft | 412 kts | 317° |
| 2026-05-08 15:33 | 38.00951 | 26.17386 | 19808 ft | 414 kts | 317° |
| 2026-05-08 15:33 | 38.03118 | 26.14999 | 20225 ft | 417 kts | 317° |
| 2026-05-08 15:33 | 38.05306 | 26.12586 | 20651 ft | 419 kts | 317° |
| 2026-05-08 15:33 | 38.07520 | 26.10142 | 21056 ft | 422 kts | 317° |
| 2026-05-08 15:34 | 38.09719 | 26.07711 | 21445 ft | 424 kts | 317° |
| 2026-05-08 15:34 | 38.11944 | 26.05250 | 21826 ft | 427 kts | 317° |
| 2026-05-08 15:34 | 38.14211 | 26.02740 | 22202 ft | 429 kts | 317° |
| 2026-05-08 15:34 | 38.16458 | 26.00250 | 22562 ft | 431 kts | 317° |
| 2026-05-08 15:35 | 38.18708 | 25.97755 | 22911 ft | 433 kts | 317° |
| 2026-05-08 15:35 | 38.20987 | 25.95225 | 23252 ft | 435 kts | 317° |
| 2026-05-08 15:35 | 38.23239 | 25.92724 | 23577 ft | 438 kts | 317° |
| 2026-05-08 15:35 | 38.25527 | 25.90188 | 23900 ft | 440 kts | 317° |
| 2026-05-08 15:36 | 38.27918 | 25.87753 | 24210 ft | 443 kts | 321° |
| 2026-05-08 15:36 | 38.30396 | 25.85411 | 24526 ft | 445 kts | 321° |
| 2026-05-08 15:36 | 38.32865 | 25.83055 | 24819 ft | 447 kts | 321° |
| 2026-05-08 15:36 | 38.35332 | 25.80663 | 25110 ft | 448 kts | 320° |
| 2026-05-08 15:37 | 38.37819 | 25.78245 | 25394 ft | 450 kts | 320° |
| 2026-05-08 15:37 | 38.40312 | 25.75819 | 25672 ft | 452 kts | 320° |
| 2026-05-08 15:37 | 38.42810 | 25.73383 | 25938 ft | 454 kts | 320° |
| 2026-05-08 15:37 | 38.45296 | 25.70956 | 26196 ft | 455 kts | 320° |
| 2026-05-08 15:38 | 38.47819 | 25.68489 | 26443 ft | 457 kts | 320° |
| 2026-05-08 15:38 | 38.50315 | 25.66050 | 26690 ft | 459 kts | 320° |
| 2026-05-08 15:38 | 38.52869 | 25.63550 | 26922 ft | 460 kts | 320° |
| 2026-05-08 15:38 | 38.55394 | 25.61075 | 27151 ft | 462 kts | 320° |
| 2026-05-08 15:39 | 38.57922 | 25.58594 | 27369 ft | 463 kts | 320° |
| 2026-05-08 15:39 | 38.60497 | 25.56066 | 27583 ft | 465 kts | 320° |
| 2026-05-08 15:39 | 38.63057 | 25.53550 | 27791 ft | 466 kts | 320° |
| 2026-05-08 15:39 | 38.65633 | 25.51015 | 27994 ft | 467 kts | 320° |
| 2026-05-08 15:40 | 38.68174 | 25.48512 | 28350 ft | 465 kts | 320° |
| 2026-05-08 15:40 | 38.70723 | 25.46000 | 28682 ft | 463 kts | 320° |
| 2026-05-08 15:40 | 38.73271 | 25.43485 | 28952 ft | 463 kts | 320° |
| 2026-05-08 15:40 | 38.75789 | 25.40998 | 29262 ft | 461 kts | 320° |
| 2026-05-08 15:41 | 38.78330 | 25.38486 | 29536 ft | 461 kts | 320° |
| 2026-05-08 15:41 | 38.80873 | 25.35969 | 29814 ft | 460 kts | 320° |
| 2026-05-08 15:41 | 38.83287 | 25.33578 | 30082 ft | 459 kts | 320° |
| 2026-05-08 15:41 | 38.85833 | 25.31053 | 30361 ft | 458 kts | 320° |
| 2026-05-08 15:42 | 38.88334 | 25.28572 | 30629 ft | 457 kts | 320° |
| 2026-05-08 15:42 | 38.90825 | 25.26097 | 30844 ft | 458 kts | 319° |
| 2026-05-08 15:42 | 38.93336 | 25.23601 | 31063 ft | 458 kts | 319° |
| 2026-05-08 15:42 | 38.95845 | 25.21105 | 31298 ft | 458 kts | 319° |
| 2026-05-08 15:43 | 38.98362 | 25.18598 | 31514 ft | 458 kts | 319° |
| 2026-05-08 15:43 | 39.00883 | 25.16085 | 31692 ft | 459 kts | 319° |
| 2026-05-08 15:43 | 39.03370 | 25.13603 | 31893 ft | 459 kts | 319° |
| 2026-05-08 15:43 | 39.05891 | 25.11085 | 32109 ft | 459 kts | 319° |
| 2026-05-08 15:44 | 39.08410 | 25.08567 | 32327 ft | 459 kts | 319° |
| 2026-05-08 15:44 | 39.10918 | 25.06058 | 32524 ft | 459 kts | 319° |
| 2026-05-08 15:44 | 39.13448 | 25.03523 | 32726 ft | 459 kts | 319° |
| 2026-05-08 15:44 | 39.15951 | 25.01014 | 32910 ft | 459 kts | 318° |
| 2026-05-08 15:45 | 39.18457 | 24.98500 | 33100 ft | 459 kts | 318° |
| 2026-05-08 15:45 | 39.20956 | 24.95990 | 33283 ft | 459 kts | 318° |
| 2026-05-08 15:45 | 39.23458 | 24.93475 | 33500 ft | 458 kts | 318° |
| 2026-05-08 15:45 | 39.25975 | 24.90945 | 33736 ft | 456 kts | 318° |
| 2026-05-08 15:46 | 39.28458 | 24.88448 | 34005 ft | 454 kts | 318° |
| 2026-05-08 15:46 | 39.30926 | 24.85960 | 34043 ft | 456 kts | 318° |
| 2026-05-08 15:46 | 39.35918 | 24.80924 | 34046 ft | 456 kts | 318° |
| 2026-05-08 15:47 | 39.40911 | 24.75879 | 34046 ft | 454 kts | 318° |
| 2026-05-08 15:47 | 39.45842 | 24.70885 | 34047 ft | 454 kts | 318° |
| 2026-05-08 15:48 | 39.53951 | 24.64419 | 34047 ft | 462 kts | 330° |
| 2026-05-08 15:49 | 39.59665 | 24.60774 | 34047 ft | 461 kts | 329° |
| 2026-05-08 15:49 | 39.65422 | 24.57072 | 34046 ft | 461 kts | 330° |
| 2026-05-08 15:50 | 39.71155 | 24.53431 | 34047 ft | 462 kts | 330° |
| 2026-05-08 15:50 | 39.76917 | 24.49777 | 34047 ft | 462 kts | 330° |
| 2026-05-08 15:51 | 39.82677 | 24.46124 | 34045 ft | 461 kts | 330° |
| 2026-05-08 15:51 | 39.88415 | 24.42484 | 34042 ft | 462 kts | 330° |
| 2026-05-08 15:52 | 39.94131 | 24.38854 | 34043 ft | 461 kts | 330° |
| 2026-05-08 15:52 | 39.99893 | 24.35189 | 34046 ft | 461 kts | 330° |
| 2026-05-08 15:53 | 40.05682 | 24.31502 | 34047 ft | 460 kts | 329° |
| 2026-05-08 15:53 | 40.11451 | 24.27821 | 34047 ft | 461 kts | 329° |
| 2026-05-08 15:54 | 40.17174 | 24.24161 | 34046 ft | 461 kts | 329° |
| 2026-05-08 15:54 | 40.22926 | 24.20477 | 34047 ft | 461 kts | 329° |
| 2026-05-08 15:55 | 40.28669 | 24.16792 | 34046 ft | 461 kts | 329° |
| 2026-05-08 15:55 | 40.37265 | 24.11262 | 34047 ft | 461 kts | 329° |
| 2026-05-08 15:56 | 40.42996 | 24.07567 | 34046 ft | 461 kts | 329° |
| 2026-05-08 15:56 | 40.48732 | 24.03861 | 34047 ft | 461 kts | 329° |
| 2026-05-08 15:57 | 40.54438 | 24.00171 | 34047 ft | 461 kts | 330° |
| 2026-05-08 15:57 | 40.60383 | 23.97012 | 34044 ft | 466 kts | 340° |
| 2026-05-08 15:58 | 40.66756 | 23.95261 | 34047 ft | 470 kts | 346° |
| 2026-05-08 15:58 | 40.73166 | 23.93681 | 34046 ft | 470 kts | 345° |
| 2026-05-08 15:59 | 40.79597 | 23.92091 | 34047 ft | 470 kts | 346° |
| 2026-05-08 15:59 | 40.86005 | 23.90541 | 34047 ft | 470 kts | 346° |
| 2026-05-08 16:00 | 40.92370 | 23.89005 | 34046 ft | 470 kts | 346° |
| 2026-05-08 16:00 | 40.98809 | 23.87455 | 34047 ft | 469 kts | 346° |
| 2026-05-08 16:01 | 41.05149 | 23.85923 | 34046 ft | 464 kts | 346° |
| 2026-05-08 16:01 | 41.11458 | 23.84373 | 34047 ft | 458 kts | 346° |
| 2026-05-08 16:02 | 41.17723 | 23.82830 | 34047 ft | 457 kts | 346° |
| 2026-05-08 16:02 | 41.23956 | 23.81311 | 34045 ft | 458 kts | 346° |
| 2026-05-08 16:03 | 41.30215 | 23.79801 | 34047 ft | 460 kts | 346° |
| 2026-05-08 16:03 | 41.36462 | 23.78282 | 34048 ft | 458 kts | 346° |
| 2026-05-08 16:04 | 41.42706 | 23.76872 | 34046 ft | 460 kts | 349° |
| 2026-05-08 16:04 | 41.49076 | 23.76108 | 34047 ft | 463 kts | 352° |
| 2026-05-08 16:05 | 41.55463 | 23.75259 | 34046 ft | 461 kts | 350° |
| 2026-05-08 16:05 | 41.61822 | 23.74330 | 34045 ft | 460 kts | 350° |
| 2026-05-08 16:06 | 41.68186 | 23.73416 | 34048 ft | 461 kts | 350° |
| 2026-05-08 16:06 | 41.74530 | 23.72512 | 34047 ft | 460 kts | 351° |
| 2026-05-08 16:07 | 41.80856 | 23.71613 | 34048 ft | 461 kts | 350° |
| 2026-05-08 16:07 | 41.87224 | 23.70698 | 34047 ft | 461 kts | 350° |
| 2026-05-08 16:08 | 41.93544 | 23.69775 | 34047 ft | 460 kts | 350° |
| 2026-05-08 16:08 | 41.99917 | 23.68859 | 34048 ft | 461 kts | 350° |
| 2026-05-08 16:09 | 42.06240 | 23.67944 | 34046 ft | 461 kts | 350° |
| 2026-05-08 16:09 | 42.12616 | 23.67023 | 34046 ft | 460 kts | 351° |
| 2026-05-08 16:10 | 42.18975 | 23.66156 | 34049 ft | 462 kts | 351° |
| 2026-05-08 16:10 | 42.25318 | 23.65306 | 34044 ft | 461 kts | 351° |
| 2026-05-08 16:11 | 42.31637 | 23.64139 | 34049 ft | 458 kts | 343° |
| 2026-05-08 16:11 | 42.37750 | 23.61936 | 34047 ft | 456 kts | 342° |
| 2026-05-08 16:12 | 42.43869 | 23.59825 | 34047 ft | 457 kts | 342° |
| 2026-05-08 16:12 | 42.50025 | 23.57733 | 34048 ft | 458 kts | 342° |
| 2026-05-08 16:13 | 42.56197 | 23.55566 | 34047 ft | 457 kts | 342° |
| 2026-05-08 16:13 | 42.62321 | 23.53411 | 34046 ft | 457 kts | 342° |
| 2026-05-08 16:14 | 42.68428 | 23.51244 | 34048 ft | 456 kts | 342° |
| 2026-05-08 16:14 | 42.74566 | 23.49093 | 34047 ft | 457 kts | 342° |
| 2026-05-08 16:15 | 42.80726 | 23.46994 | 34047 ft | 457 kts | 342° |
| 2026-05-08 16:15 | 42.86827 | 23.44906 | 34047 ft | 457 kts | 342° |
| 2026-05-08 16:16 | 42.92971 | 23.42745 | 34046 ft | 459 kts | 342° |
| 2026-05-08 16:16 | 42.99185 | 23.40496 | 34047 ft | 466 kts | 342° |
| 2026-05-08 16:17 | 43.05452 | 23.38225 | 34044 ft | 469 kts | 343° |
| 2026-05-08 16:17 | 43.11739 | 23.35988 | 34045 ft | 467 kts | 343° |
| 2026-05-08 16:18 | 43.18011 | 23.33755 | 34048 ft | 467 kts | 343° |
| 2026-05-08 16:18 | 43.24425 | 23.32242 | 34049 ft | 472 kts | 353° |
| 2026-05-08 16:19 | 43.30940 | 23.31578 | 34047 ft | 471 kts | 353° |
| 2026-05-08 16:19 | 43.37471 | 23.30834 | 34045 ft | 473 kts | 352° |
| 2026-05-08 16:20 | 43.43979 | 23.30030 | 34046 ft | 471 kts | 352° |
| 2026-05-08 16:20 | 43.50442 | 23.29238 | 34045 ft | 471 kts | 352° |
| 2026-05-08 16:21 | 43.56944 | 23.28453 | 34047 ft | 471 kts | 352° |
| 2026-05-08 16:21 | 43.63474 | 23.27657 | 34048 ft | 472 kts | 352° |
| 2026-05-08 16:22 | 43.69955 | 23.26856 | 34047 ft | 471 kts | 351° |
| 2026-05-08 16:22 | 43.76435 | 23.25990 | 34046 ft | 470 kts | 352° |
| 2026-05-08 16:23 | 43.82933 | 23.24948 | 33990 ft | 470 kts | 345° |
| 2026-05-08 16:23 | 43.89169 | 23.22628 | 33992 ft | 466 kts | 341° |
| 2026-05-08 16:24 | 43.95439 | 23.20239 | 33995 ft | 469 kts | 342° |
| 2026-05-08 16:24 | 44.01720 | 23.17954 | 33991 ft | 467 kts | 342° |
| 2026-05-08 16:25 | 44.07973 | 23.15597 | 33994 ft | 467 kts | 341° |
| 2026-05-08 16:25 | 44.14233 | 23.13193 | 33993 ft | 468 kts | 341° |
| 2026-05-08 16:26 | 44.20488 | 23.10820 | 33992 ft | 468 kts | 342° |
| 2026-05-08 16:26 | 44.26751 | 23.08384 | 33990 ft | 468 kts | 341° |
| 2026-05-08 16:27 | 44.32982 | 23.05966 | 33992 ft | 466 kts | 342° |
| 2026-05-08 16:27 | 44.39200 | 23.03565 | 33995 ft | 467 kts | 341° |
| 2026-05-08 16:28 | 44.45411 | 23.01126 | 33993 ft | 465 kts | 341° |
| 2026-05-08 16:28 | 44.51591 | 22.98645 | 33994 ft | 463 kts | 341° |
| 2026-05-08 16:29 | 44.57742 | 22.96160 | 33992 ft | 459 kts | 341° |
| 2026-05-08 16:29 | 44.63853 | 22.93721 | 33993 ft | 458 kts | 341° |
| 2026-05-08 16:30 | 44.69951 | 22.91293 | 33992 ft | 458 kts | 342° |
| 2026-05-08 16:30 | 44.76035 | 22.88864 | 33992 ft | 454 kts | 342° |
| 2026-05-08 16:31 | 44.82105 | 22.86522 | 33993 ft | 453 kts | 342° |
| 2026-05-08 16:31 | 44.88147 | 22.84177 | 33993 ft | 451 kts | 342° |
| 2026-05-08 16:32 | 44.94176 | 22.81753 | 33993 ft | 451 kts | 342° |
| 2026-05-08 16:32 | 45.00176 | 22.79332 | 33992 ft | 448 kts | 342° |
| 2026-05-08 16:33 | 45.06072 | 22.76980 | 33992 ft | 443 kts | 343° |
| 2026-05-08 16:33 | 45.11982 | 22.74661 | 33995 ft | 440 kts | 343° |
| 2026-05-08 16:34 | 45.17878 | 22.72349 | 33999 ft | 438 kts | 343° |
| 2026-05-08 16:34 | 45.23709 | 22.70029 | 34004 ft | 440 kts | 343° |
| 2026-05-08 16:35 | 45.29605 | 22.67660 | 34008 ft | 440 kts | 343° |
| 2026-05-08 16:35 | 45.35466 | 22.65303 | 34003 ft | 439 kts | 343° |
| 2026-05-08 16:36 | 45.41313 | 22.62934 | 34000 ft | 440 kts | 343° |
| 2026-05-08 16:36 | 45.47173 | 22.60570 | 33998 ft | 440 kts | 343° |
| 2026-05-08 16:37 | 45.53075 | 22.58193 | 33996 ft | 440 kts | 343° |
| 2026-05-08 16:37 | 45.58902 | 22.55766 | 33993 ft | 440 kts | 342° |
| 2026-05-08 16:38 | 45.64800 | 22.53327 | 33993 ft | 440 kts | 343° |
| 2026-05-08 16:38 | 45.70626 | 22.50907 | 33992 ft | 440 kts | 343° |
| 2026-05-08 16:39 | 45.76503 | 22.48484 | 33993 ft | 441 kts | 343° |
| 2026-05-08 16:39 | 45.82376 | 22.46073 | 33991 ft | 439 kts | 343° |
| 2026-05-08 16:40 | 45.88215 | 22.43659 | 33994 ft | 441 kts | 343° |
| 2026-05-08 16:40 | 45.94086 | 22.41232 | 33993 ft | 441 kts | 343° |
| 2026-05-08 16:41 | 45.99982 | 22.38807 | 33996 ft | 439 kts | 343° |
| 2026-05-08 16:42 | 46.08747 | 22.35165 | 33997 ft | 440 kts | 343° |
| 2026-05-08 16:42 | 46.14618 | 22.32726 | 34004 ft | 439 kts | 342° |
| 2026-05-08 16:43 | 46.20460 | 22.30263 | 34012 ft | 440 kts | 342° |
| 2026-05-08 16:43 | 46.26320 | 22.27843 | 34020 ft | 440 kts | 342° |
| 2026-05-08 16:44 | 46.32218 | 22.25451 | 34019 ft | 441 kts | 342° |
| 2026-05-08 16:44 | 46.38084 | 22.23042 | 34019 ft | 439 kts | 342° |
| 2026-05-08 16:45 | 46.43939 | 22.20611 | 34020 ft | 439 kts | 342° |
| 2026-05-08 16:45 | 46.49809 | 22.18150 | 34020 ft | 441 kts | 342° |
| 2026-05-08 16:46 | 46.55638 | 22.15635 | 34020 ft | 441 kts | 342° |
| 2026-05-08 16:46 | 46.61523 | 22.13101 | 34019 ft | 440 kts | 342° |
| 2026-05-08 16:47 | 46.67384 | 22.10643 | 34020 ft | 441 kts | 342° |
| 2026-05-08 16:47 | 46.73238 | 22.08194 | 34020 ft | 440 kts | 342° |
| 2026-05-08 16:48 | 46.79089 | 22.05735 | 34020 ft | 440 kts | 342° |
| 2026-05-08 16:48 | 46.84963 | 22.03206 | 34021 ft | 440 kts | 342° |
| 2026-05-08 16:49 | 46.90807 | 22.00648 | 34018 ft | 439 kts | 342° |
| 2026-05-08 16:49 | 46.96616 | 21.98130 | 34019 ft | 436 kts | 342° |
| 2026-05-08 16:50 | 47.02378 | 21.95673 | 34020 ft | 434 kts | 343° |
| 2026-05-08 16:50 | 47.08161 | 21.93229 | 34021 ft | 434 kts | 343° |
| 2026-05-08 16:51 | 47.13962 | 21.90684 | 34020 ft | 435 kts | 342° |
| 2026-05-08 16:51 | 47.19731 | 21.88152 | 34020 ft | 433 kts | 343° |
| 2026-05-08 16:52 | 47.25500 | 21.85656 | 34020 ft | 433 kts | 343° |
| 2026-05-08 16:52 | 47.31278 | 21.83287 | 34020 ft | 435 kts | 344° |
| 2026-05-08 16:53 | 47.39989 | 21.79735 | 34018 ft | 432 kts | 343° |
| 2026-05-08 16:53 | 47.45759 | 21.77336 | 34019 ft | 434 kts | 343° |
| 2026-05-08 16:54 | 47.51573 | 21.74924 | 34020 ft | 434 kts | 343° |
| 2026-05-08 16:54 | 47.57347 | 21.72495 | 34021 ft | 434 kts | 343° |
| 2026-05-08 16:55 | 47.63135 | 21.70067 | 34019 ft | 434 kts | 343° |
| 2026-05-08 16:55 | 47.68922 | 21.67638 | 34019 ft | 434 kts | 343° |
| 2026-05-08 16:56 | 47.74714 | 21.65157 | 34021 ft | 434 kts | 343° |
| 2026-05-08 16:56 | 47.80480 | 21.62671 | 34021 ft | 434 kts | 343° |
| 2026-05-08 16:57 | 47.86259 | 21.60198 | 34019 ft | 433 kts | 343° |
| 2026-05-08 16:57 | 47.92035 | 21.57752 | 34021 ft | 434 kts | 344° |
| 2026-05-08 16:58 | 47.97817 | 21.55337 | 34020 ft | 434 kts | 343° |
| 2026-05-08 16:58 | 48.03606 | 21.52863 | 34020 ft | 434 kts | 343° |
| 2026-05-08 16:59 | 48.09394 | 21.50348 | 34020 ft | 434 kts | 343° |
| 2026-05-08 16:59 | 48.15159 | 21.47838 | 34021 ft | 434 kts | 343° |
| 2026-05-08 17:00 | 48.20950 | 21.45331 | 34023 ft | 433 kts | 343° |
| 2026-05-08 17:00 | 48.26708 | 21.42845 | 34032 ft | 434 kts | 343° |
| 2026-05-08 17:01 | 48.32485 | 21.40361 | 34040 ft | 433 kts | 343° |
| 2026-05-08 17:01 | 48.38271 | 21.37858 | 34046 ft | 433 kts | 343° |
| 2026-05-08 17:02 | 48.44062 | 21.35342 | 34047 ft | 434 kts | 343° |
| 2026-05-08 17:02 | 48.49826 | 21.32821 | 34047 ft | 433 kts | 343° |
| 2026-05-08 17:03 | 48.55589 | 21.30326 | 34047 ft | 433 kts | 343° |
| 2026-05-08 17:03 | 48.61350 | 21.27875 | 34046 ft | 433 kts | 343° |
| 2026-05-08 17:04 | 48.67155 | 21.25356 | 34047 ft | 434 kts | 343° |
| 2026-05-08 17:04 | 48.72976 | 21.23059 | 33890 ft | 436 kts | 346° |
| 2026-05-08 17:05 | 48.75913 | 21.22051 | 33638 ft | 436 kts | 346° |
| 2026-05-08 17:05 | 48.78859 | 21.21023 | 33387 ft | 435 kts | 346° |
| 2026-05-08 17:05 | 48.81782 | 21.19983 | 33138 ft | 435 kts | 346° |
| 2026-05-08 17:05 | 48.84727 | 21.18929 | 32890 ft | 435 kts | 346° |
| 2026-05-08 17:06 | 48.87649 | 21.17880 | 32641 ft | 435 kts | 346° |
| 2026-05-08 17:06 | 48.90596 | 21.16814 | 32392 ft | 436 kts | 345° |
| 2026-05-08 17:06 | 48.93526 | 21.15751 | 32145 ft | 438 kts | 345° |
| 2026-05-08 17:06 | 48.96469 | 21.14679 | 31896 ft | 438 kts | 345° |
| 2026-05-08 17:07 | 48.99440 | 21.13596 | 31643 ft | 439 kts | 345° |
| 2026-05-08 17:07 | 49.02426 | 21.12519 | 31392 ft | 441 kts | 346° |
| 2026-05-08 17:07 | 49.05374 | 21.11455 | 31145 ft | 442 kts | 345° |
| 2026-05-08 17:07 | 49.08392 | 21.10360 | 30892 ft | 444 kts | 345° |
| 2026-05-08 17:08 | 49.11351 | 21.09278 | 30645 ft | 445 kts | 345° |
| 2026-05-08 17:08 | 49.14412 | 21.08144 | 30390 ft | 446 kts | 345° |
| 2026-05-08 17:08 | 49.17409 | 21.07024 | 30141 ft | 447 kts | 345° |
| 2026-05-08 17:08 | 49.20425 | 21.05893 | 29890 ft | 448 kts | 345° |
| 2026-05-08 17:09 | 49.23452 | 21.04766 | 29295 ft | 447 kts | 345° |
| 2026-05-08 17:09 | 49.26411 | 21.03574 | 28299 ft | 448 kts | 341° |
| 2026-05-08 17:09 | 49.29345 | 21.02016 | 27263 ft | 447 kts | 335° |
| 2026-05-08 17:09 | 49.32095 | 20.99890 | 26578 ft | 438 kts | 327° |
| 2026-05-08 17:10 | 49.34577 | 20.97349 | 25864 ft | 431 kts | 322° |
| 2026-05-08 17:10 | 49.36919 | 20.94522 | 25139 ft | 425 kts | 316° |
| 2026-05-08 17:10 | 49.39003 | 20.91362 | 24252 ft | 424 kts | 315° |
| 2026-05-08 17:10 | 49.41291 | 20.88553 | 23236 ft | 428 kts | 323° |
| 2026-05-08 17:11 | 49.43751 | 20.86073 | 22222 ft | 429 kts | 324° |
| 2026-05-08 17:11 | 49.46201 | 20.83520 | 21192 ft | 422 kts | 322° |
| 2026-05-08 17:11 | 49.48554 | 20.80969 | 20216 ft | 411 kts | 322° |
| 2026-05-08 17:11 | 49.50829 | 20.78488 | 19314 ft | 400 kts | 322° |
| 2026-05-08 17:12 | 49.53048 | 20.76060 | 18560 ft | 387 kts | 322° |
| 2026-05-08 17:12 | 49.55238 | 20.73652 | 17606 ft | 389 kts | 322° |
| 2026-05-08 17:12 | 49.57420 | 20.71233 | 16700 ft | 391 kts | 322° |
| 2026-05-08 17:12 | 49.59603 | 20.68798 | 15977 ft | 388 kts | 321° |
| 2026-05-08 17:13 | 49.61761 | 20.66382 | 15307 ft | 383 kts | 321° |
| 2026-05-08 17:13 | 49.63896 | 20.63986 | 14651 ft | 379 kts | 321° |
| 2026-05-08 17:13 | 49.66009 | 20.61609 | 14001 ft | 375 kts | 321° |
| 2026-05-08 17:13 | 49.68108 | 20.59243 | 13352 ft | 371 kts | 321° |
| 2026-05-08 17:14 | 49.70153 | 20.56934 | 12717 ft | 368 kts | 321° |
| 2026-05-08 17:14 | 49.72212 | 20.54607 | 12075 ft | 365 kts | 322° |
| 2026-05-08 17:14 | 49.74224 | 20.52329 | 11446 ft | 361 kts | 322° |
| 2026-05-08 17:14 | 49.76237 | 20.50048 | 10929 ft | 354 kts | 322° |
| 2026-05-08 17:15 | 49.78184 | 20.47841 | 10600 ft | 342 kts | 322° |
| 2026-05-08 17:15 | 49.80043 | 20.45733 | 10457 ft | 326 kts | 322° |
| 2026-05-08 17:15 | 49.81829 | 20.43704 | 10306 ft | 311 kts | 322° |
| 2026-05-08 17:15 | 49.83556 | 20.41737 | 10059 ft | 301 kts | 322° |
| 2026-05-08 17:16 | 49.85201 | 20.39863 | 9749 ft | 295 kts | 322° |
| 2026-05-08 17:16 | 49.86859 | 20.37970 | 9207 ft | 294 kts | 322° |
| 2026-05-08 17:16 | 49.88469 | 20.36135 | 8731 ft | 287 kts | 322° |
| 2026-05-08 17:16 | 49.90071 | 20.34306 | 8290 ft | 280 kts | 321° |
| 2026-05-08 17:17 | 49.91605 | 20.32556 | 7913 ft | 272 kts | 322° |
| 2026-05-08 17:17 | 49.93106 | 20.30841 | 7554 ft | 266 kts | 322° |
| 2026-05-08 17:17 | 49.94587 | 20.29141 | 7191 ft | 264 kts | 322° |
| 2026-05-08 17:17 | 49.96061 | 20.27451 | 6836 ft | 262 kts | 323° |
| 2026-05-08 17:18 | 49.97501 | 20.25804 | 6487 ft | 260 kts | 322° |
| 2026-05-08 17:18 | 49.98972 | 20.24111 | 6137 ft | 262 kts | 323° |
| 2026-05-08 17:18 | 50.00429 | 20.22433 | 5778 ft | 262 kts | 323° |
| 2026-05-08 17:18 | 50.01872 | 20.20777 | 5425 ft | 260 kts | 324° |
| 2026-05-08 17:19 | 50.03326 | 20.19113 | 5072 ft | 257 kts | 324° |
| 2026-05-08 17:19 | 50.04755 | 20.17473 | 4925 ft | 254 kts | 323° |
| 2026-05-08 17:19 | 50.06193 | 20.15806 | 4906 ft | 262 kts | 323° |
| 2026-05-08 17:19 | 50.07630 | 20.14155 | 4909 ft | 253 kts | 323° |
| 2026-05-08 17:20 | 50.09023 | 20.12548 | 4911 ft | 245 kts | 324° |
| 2026-05-08 17:20 | 50.10354 | 20.11003 | 4911 ft | 236 kts | 321° |
| 2026-05-08 17:20 | 50.11416 | 20.09071 | 4756 ft | 237 kts | 296° |
| 2026-05-08 17:20 | 50.11642 | 20.06551 | 4285 ft | 242 kts | 261° |
| 2026-05-08 17:21 | 50.11163 | 20.04066 | 3784 ft | 237 kts | 256° |
| 2026-05-08 17:21 | 50.10867 | 20.01600 | 3357 ft | 225 kts | 263° |
| 2026-05-08 17:21 | 50.10610 | 19.99278 | 3085 ft | 207 kts | 261° |
| 2026-05-08 17:21 | 50.10344 | 19.97183 | 2910 ft | 187 kts | 261° |
| 2026-05-08 17:22 | 50.10086 | 19.95227 | 2668 ft | 187 kts | 260° |
| 2026-05-08 17:22 | 50.09824 | 19.93304 | 2416 ft | 170 kts | 260° |
| 2026-05-08 17:22 | 50.09589 | 19.91583 | 2192 ft | 156 kts | 261° |
| 2026-05-08 17:22 | 50.09362 | 19.89926 | 1976 ft | 158 kts | 260° |
| 2026-05-08 17:23 | 50.09133 | 19.88271 | 1775 ft | 158 kts | 260° |
| 2026-05-08 17:23 | 50.08902 | 19.86606 | 1582 ft | 150 kts | 261° |
| 2026-05-08 17:23 | 50.08679 | 19.85027 | 1434 ft | 149 kts | 260° |
| 2026-05-08 17:23 | 50.08455 | 19.83464 | 1331 ft | 149 kts | 260° |
| 2026-05-08 17:24 | 50.08242 | 19.81860 | 1169 ft | 152 kts | 261° |
| 2026-05-08 17:24 | 50.08022 | 19.80301 | 901 ft | 146 kts | 261° |
| 2026-05-08 17:24 | 50.07815 | 19.78783 | 800 ft | 125 kts | 259° |
| 2026-05-08 17:24 | 50.07675 | 19.77768 | 800 ft | 77 kts | 258° |
| 2026-05-08 17:25 | 50.07587 | 19.77135 | 800 ft | 41 kts | 256° |
| 2026-05-08 17:25 | 50.07536 | 19.76884 | 800 ft | 6 kts | 227° |
| 2026-05-08 17:25 | 50.07484 | 19.76858 | 800 ft | 10 kts | 179° |
| 2026-05-08 17:25 | 50.07400 | 19.76882 | 800 ft | 14 kts | 167° |
| 2026-05-08 17:26 | 50.07315 | 19.76937 | 800 ft | 12 kts | 119° |
| 2026-05-08 17:26 | 50.07326 | 19.77088 | 800 ft | 18 kts | 76° |
| 2026-05-08 17:26 | 50.07357 | 19.77296 | 800 ft | 18 kts | 80° |
| 2026-05-08 17:26 | 50.07382 | 19.77490 | 800 ft | 18 kts | 78° |
| 2026-05-08 17:27 | 50.07409 | 19.77686 | 800 ft | 18 kts | 79° |
| 2026-05-08 17:27 | 50.07435 | 19.77877 | 800 ft | 18 kts | 78° |
| 2026-05-08 17:27 | 50.07462 | 19.78068 | 800 ft | 18 kts | 78° |
| 2026-05-08 17:27 | 50.07491 | 19.78266 | 800 ft | 18 kts | 78° |
| 2026-05-08 17:28 | 50.07518 | 19.78457 | 800 ft | 18 kts | 77° |
| 2026-05-08 17:28 | 50.07544 | 19.78649 | 800 ft | 18 kts | 78° |
| 2026-05-08 17:28 | 50.07570 | 19.78841 | 800 ft | 18 kts | 78° |
| 2026-05-08 17:28 | 50.07597 | 19.79035 | 800 ft | 18 kts | 78° |
| 2026-05-08 17:29 | 50.07625 | 19.79234 | 800 ft | 18 kts | 78° |
| 2026-05-08 17:29 | 50.07653 | 19.79433 | 800 ft | 16 kts | 78° |
| 2026-05-08 17:29 | 50.07671 | 19.79567 | 800 ft | 10 kts | 78° |
| 2026-05-08 17:29 | 50.07674 | 19.79587 | 800 ft | 0 kts | 78° |
| 2026-05-08 17:30 | 50.07675 | 19.79595 | 800 ft | 1 kts | 78° |
| 2026-05-08 17:31 | 50.07679 | 19.79625 | 800 ft | 4 kts | 78° |
| 2026-05-08 17:31 | 50.07687 | 19.79683 | 800 ft | 6 kts | 78° |
| 2026-05-08 17:31 | 50.07700 | 19.79776 | 800 ft | 11 kts | 77° |
| 2026-05-08 17:31 | 50.07719 | 19.79910 | 800 ft | 13 kts | 78° |
| 2026-05-08 17:32 | 50.07740 | 19.80063 | 800 ft | 15 kts | 77° |
| 2026-05-08 17:32 | 50.07766 | 19.80234 | 800 ft | 14 kts | 77° |
| 2026-05-08 17:32 | 50.07758 | 19.80353 | 800 ft | 9 kts | 137° |
| 2026-05-08 17:32 | 50.07686 | 19.80391 | 800 ft | 11 kts | 168° |
| 2026-05-08 17:33 | 50.07612 | 19.80414 | 800 ft | 8 kts | 171° |
| 2026-05-08 17:33 | 50.07568 | 19.80368 | 800 ft | 8 kts | 250° |
| 2026-05-08 17:33 | 50.07563 | 19.80321 | 800 ft | 2 kts | 296° |
| 2026-05-08 17:33 | 50.07577 | 19.80302 | 800 ft | 2 kts | 344° |
| 2026-05-08 17:34 | 50.07604 | 19.80291 | 800 ft | 2 kts | 347° |
| 2026-05-08 17:34 | 50.07606 | 19.80291 | 800 ft | 0 kts | 347° |